Time;durP1;ratioP1;P1;durP2;ratioP2;P2;SDS_P1;SDS_P2;PMS_P1;PMS_P2;Temp;Humidity;BMP_temperature;BMP_pressure;BME280_temperature;BME280_humidity;BME280_pressure;Samples;Min_cycle;Max_cycle;Signal;HPM_P1;HPM_P2
2022/03/15 00:00:45;;;;;;;17.95;15.00;;;;;;;;;;5055153;28;20423;-87
2022/03/15 00:03:11;;;;;;;19.73;15.20;;;;;;;;;;5058578;28;20432;-87
2022/03/15 00:05:37;;;;;;;18.70;15.40;;;;;;;;;;5059458;28;20919;-87
2022/03/15 00:08:05;;;;;;;15.20;13.70;;;;;;;;;;5059339;28;20426;-86
2022/03/15 00:10:32;;;;;;;18.60;14.50;;;;;;;;;;5057655;28;20425;-87
2022/03/15 00:12:58;;;;;;;17.13;15.07;;;;;;;;;;5058671;28;20425;-88
2022/03/15 00:15:25;;;;;;;18.50;14.73;;;;;;;;;;5056139;28;20433;-88
2022/03/15 00:17:53;;;;;;;17.95;14.88;;;;;;;;;;5059206;28;20481;-87
2022/03/15 00:20:21;;;;;;;15.77;14.07;;;;;;;;;;5055908;28;20822;-87
2022/03/15 00:22:49;;;;;;;16.35;14.25;;;;;;;;;;5059657;28;20919;-88
2022/03/15 00:25:16;;;;;;;17.15;15.05;;;;;;;;;;5057500;28;20423;-87
2022/03/15 00:27:43;;;;;;;18.80;16.00;;;;;;;;;;5059960;28;20457;-85
2022/03/15 00:30:10;;;;;;;22.63;17.30;;;;;;;;;;5058537;28;20459;-87
2022/03/15 00:32:36;;;;;;;21.33;16.80;;;;;;;;;;5056930;28;20431;-87
2022/03/15 00:35:05;;;;;;;23.42;17.58;;;;;;;;;;5059217;28;20536;-87
2022/03/15 00:37:32;;;;;;;24.55;17.50;;;;;;;;;;5057575;28;20428;-86
2022/03/15 00:39:58;;;;;;;20.90;16.85;;;;;;;;;;5060050;28;20449;-87
2022/03/15 00:42:24;;;;;;;24.23;17.10;;;;;;;;;;5056483;28;20696;-88
2022/03/15 00:44:51;;;;;;;23.30;17.17;;;;;;;;;;5058978;28;20428;-87
2022/03/15 00:47:17;;;;;;;26.05;18.33;;;;;;;;;;5057387;28;20495;-87
2022/03/15 00:49:43;;;;;;;28.20;18.90;;;;;;;;;;5055286;28;20516;-87
2022/03/15 00:52:11;;;;;;;26.45;18.98;;;;;;;;;;5057204;28;20421;-87
2022/03/15 00:54:37;;;;;;;36.20;19.98;;;;;;;;;;5059056;28;20920;-87
2022/03/15 00:57:03;;;;;;;29.70;18.83;;;;;;;;;;5056226;28;20425;-87
2022/03/15 00:59:30;;;;;;;24.80;18.88;;;;;;;;;;5058041;28;20504;-87
2022/03/15 01:01:56;;;;;;;25.02;19.10;;;;;;;;;;5057431;28;20420;-87
2022/03/15 01:04:23;;;;;;;31.00;21.25;;;;;;;;;;5057259;28;20444;-87
2022/03/15 01:06:49;;;;;;;27.25;19.77;;;;;;;;;;5055449;28;20845;-87
2022/03/15 01:09:16;;;;;;;23.02;17.10;;;;;;;;;;5058625;28;20953;-87
2022/03/15 01:11:43;;;;;;;24.58;19.13;;;;;;;;;;5057757;28;20487;-86
2022/03/15 01:14:09;;;;;;;29.55;18.85;;;;;;;;;;5058289;28;20417;-87
2022/03/15 01:16:35;;;;;;;22.38;17.65;;;;;;;;;;5057925;28;20446;-88
2022/03/15 01:19:01;;;;;;;25.35;17.73;;;;;;;;;;5058073;28;20514;-87
2022/03/15 01:21:29;;;;;;;24.55;18.00;;;;;;;;;;5068342;23;20465;-83
2022/03/15 01:23:55;;;;;;;20.40;16.20;;;;;;;;;;5031678;28;20446;-85
2022/03/15 01:26:22;;;;;;;18.90;15.80;;;;;;;;;;5031585;28;20423;-84
2022/03/15 01:28:49;;;;;;;18.48;15.63;;;;;;;;;;5030594;28;20430;-82
2022/03/15 01:31:15;;;;;;;18.90;15.10;;;;;;;;;;5030551;28;20525;-82
2022/03/15 01:33:41;;;;;;;18.42;14.65;;;;;;;;;;5033768;28;20637;-82
2022/03/15 01:36:08;;;;;;;22.00;15.80;;;;;;;;;;5029498;28;20427;-86
2022/03/15 01:38:35;;;;;;;20.60;15.95;;;;;;;;;;5031531;28;20439;-83
2022/03/15 01:41:01;;;;;;;19.60;15.35;;;;;;;;;;5032529;28;20493;-82
2022/03/15 01:43:29;;;;;;;20.88;16.25;;;;;;;;;;5031740;28;20846;-82
2022/03/15 01:45:55;;;;;;;25.05;16.20;;;;;;;;;;5030029;28;20419;-82
2022/03/15 01:48:21;;;;;;;18.20;15.00;;;;;;;;;;5029749;28;20425;-82
2022/03/15 01:50:47;;;;;;;20.58;15.90;;;;;;;;;;5029825;28;20425;-82
2022/03/15 01:53:14;;;;;;;18.90;15.63;;;;;;;;;;5032409;28;20476;-84
2022/03/15 01:55:41;;;;;;;18.85;14.35;;;;;;;;;;5031468;28;20476;-85
2022/03/15 01:58:07;;;;;;;20.55;15.48;;;;;;;;;;5033126;28;20427;-85
2022/03/15 02:00:35;;;;;;;20.13;15.27;;;;;;;;;;5032212;28;20433;-84
2022/03/15 02:03:02;;;;;;;20.35;15.40;;;;;;;;;;5034917;28;21744;-83
2022/03/15 02:05:28;;;;;;;20.90;15.00;;;;;;;;;;5033826;28;20438;-83
2022/03/15 02:07:55;;;;;;;20.75;14.57;;;;;;;;;;5033893;28;20419;-83
2022/03/15 02:10:21;;;;;;;19.60;15.23;;;;;;;;;;5031089;28;20489;-83
2022/03/15 02:12:47;;;;;;;22.33;15.85;;;;;;;;;;5034557;28;20459;-82
2022/03/15 02:15:13;;;;;;;20.25;15.10;;;;;;;;;;5033021;28;20512;-82
2022/03/15 02:17:41;;;;;;;16.80;13.63;;;;;;;;;;5037461;28;20488;-82
2022/03/15 02:20:09;;;;;;;20.40;14.52;;;;;;;;;;5035429;28;20412;-82
2022/03/15 02:22:36;;;;;;;17.17;13.65;;;;;;;;;;5035587;28;20431;-82
2022/03/15 02:25:02;;;;;;;21.02;15.57;;;;;;;;;;5033393;28;20488;-82
2022/03/15 02:27:28;;;;;;;21.25;15.65;;;;;;;;;;5054276;28;20440;-81
2022/03/15 02:29:54;;;;;;;20.20;14.57;;;;;;;;;;5051985;28;20474;-82
2022/03/15 02:32:21;;;;;;;24.27;16.02;;;;;;;;;;5051193;28;20430;-85
2022/03/15 02:34:47;;;;;;;23.38;16.55;;;;;;;;;;5052501;28;20488;-83
2022/03/15 02:37:15;;;;;;;23.00;18.48;;;;;;;;;;5048667;28;20425;-82
2022/03/15 02:39:42;;;;;;;27.05;18.88;;;;;;;;;;5052270;28;20421;-85
2022/03/15 02:42:08;;;;;;;22.98;18.50;;;;;;;;;;5049304;28;20463;-81
2022/03/15 02:44:34;;;;;;;25.83;18.77;;;;;;;;;;5054733;28;20470;-82
2022/03/15 02:47:01;;;;;;;25.52;19.35;;;;;;;;;;5053611;28;20421;-81
2022/03/15 02:49:27;;;;;;;31.23;19.60;;;;;;;;;;5057381;28;20443;-85
2022/03/15 02:51:53;;;;;;;29.98;19.45;;;;;;;;;;5052556;28;20851;-82
2022/03/15 02:54:21;;;;;;;32.83;21.08;;;;;;;;;;5058925;28;20463;-81
2022/03/15 02:56:49;;;;;;;28.65;19.67;;;;;;;;;;5056985;28;20417;-85
2022/03/15 02:59:15;;;;;;;25.25;18.55;;;;;;;;;;5056810;28;20432;-83
2022/03/15 03:01:42;;;;;;;27.00;18.55;;;;;;;;;;5055269;28;20425;-87
2022/03/15 03:04:10;;;;;;;23.35;18.25;;;;;;;;;;5056020;28;20448;-83
2022/03/15 03:06:36;;;;;;;24.98;17.50;;;;;;;;;;5055414;28;20428;-82
2022/03/15 03:09:02;;;;;;;23.35;16.83;;;;;;;;;;5058234;28;20429;-81
2022/03/15 03:11:30;;;;;;;29.30;18.23;;;;;;;;;;5055761;28;20425;-82
2022/03/15 03:13:57;;;;;;;26.80;18.38;;;;;;;;;;5057457;28;20417;-82
2022/03/15 03:16:23;;;;;;;30.35;19.17;;;;;;;;;;5054675;28;20425;-84
2022/03/15 03:18:54;;;;;;;28.30;19.10;;;;;;;;;;5055956;28;20838;-83
2022/03/15 03:21:21;;;;;;;30.33;18.55;;;;;;;;;;5053718;28;20593;-82
2022/03/15 03:23:47;;;;;;;25.60;18.20;;;;;;;;;;5058066;28;20853;-82
2022/03/15 03:26:14;;;;;;;24.80;16.33;;;;;;;;;;5056036;28;20429;-82
2022/03/15 03:28:42;;;;;;;23.88;17.70;;;;;;;;;;5058166;28;20434;-84
2022/03/15 03:31:09;;;;;;;23.47;17.50;;;;;;;;;;5056997;28;20433;-84
2022/03/15 03:33:35;;;;;;;24.20;16.35;;;;;;;;;;5057839;28;20490;-83
2022/03/15 03:36:02;;;;;;;24.52;16.58;;;;;;;;;;5056443;28;20437;-81
2022/03/15 03:38:29;;;;;;;27.13;17.63;;;;;;;;;;5053939;28;20437;-85
2022/03/15 03:40:55;;;;;;;25.10;17.92;;;;;;;;;;5058191;28;20423;-83
2022/03/15 03:43:22;;;;;;;23.92;17.20;;;;;;;;;;5057475;28;20437;-82
2022/03/15 03:45:49;;;;;;;28.35;16.73;;;;;;;;;;5055437;28;20429;-81
2022/03/15 03:48:16;;;;;;;23.70;16.95;;;;;;;;;;5054626;28;20421;-83
2022/03/15 03:50:43;;;;;;;27.77;18.00;;;;;;;;;;5056392;28;20440;-82
2022/03/15 03:53:09;;;;;;;31.30;18.63;;;;;;;;;;5054105;28;20436;-82
2022/03/15 03:55:36;;;;;;;35.78;20.80;;;;;;;;;;5054933;28;20421;-84
2022/03/15 03:58:03;;;;;;;46.50;23.55;;;;;;;;;;5056528;28;20425;-81
2022/03/15 04:00:30;;;;;;;44.33;23.77;;;;;;;;;;5056533;28;20429;-81
2022/03/15 04:03:00;;;;;;;36.50;22.25;;;;;;;;;;5057564;28;20433;-84
2022/03/15 04:05:27;;;;;;;29.75;20.45;;;;;;;;;;5054665;28;20978;-85
2022/03/15 04:07:54;;;;;;;36.50;22.40;;;;;;;;;;5056505;28;20451;-82
2022/03/15 04:10:22;;;;;;;27.42;19.50;;;;;;;;;;5049178;28;20811;-83
2022/03/15 04:12:49;;;;;;;29.25;19.25;;;;;;;;;;5055274;28;20421;-81
2022/03/15 04:15:16;;;;;;;28.65;19.50;;;;;;;;;;5054758;28;20425;-82
2022/03/15 04:17:42;;;;;;;33.20;20.50;;;;;;;;;;5055258;28;20437;-84
2022/03/15 04:20:11;;;;;;;33.53;21.65;;;;;;;;;;5054633;28;20460;-84
2022/03/15 04:22:37;;;;;;;37.20;21.40;;;;;;;;;;5054213;28;20429;-83
2022/03/15 04:25:04;;;;;;;34.60;20.70;;;;;;;;;;5052993;28;20845;-83
2022/03/15 04:27:30;;;;;;;33.90;21.58;;;;;;;;;;5054808;28;20430;-81
2022/03/15 04:29:57;;;;;;;33.65;22.13;;;;;;;;;;5052095;28;20425;-84
2022/03/15 04:32:24;;;;;;;31.95;22.00;;;;;;;;;;5054431;28;20421;-82
2022/03/15 04:34:50;;;;;;;31.40;20.65;;;;;;;;;;5056594;28;20418;-81
2022/03/15 04:37:18;;;;;;;31.98;22.40;;;;;;;;;;5052545;28;20431;-82
2022/03/15 04:39:45;;;;;;;31.30;21.15;;;;;;;;;;5054080;28;20449;-82
2022/03/15 04:42:11;;;;;;;30.85;20.90;;;;;;;;;;5053252;28;20494;-83
2022/03/15 04:44:38;;;;;;;33.13;22.05;;;;;;;;;;5054627;28;20436;-81
2022/03/15 04:47:04;;;;;;;34.92;21.45;;;;;;;;;;5050949;28;20483;-81
2022/03/15 04:49:31;;;;;;;33.25;21.15;;;;;;;;;;5054244;28;20906;-84
2022/03/15 04:51:57;;;;;;;32.65;22.20;;;;;;;;;;5054621;28;20428;-81
2022/03/15 04:54:25;;;;;;;27.92;20.38;;;;;;;;;;5055404;28;21036;-83
2022/03/15 04:56:51;;;;;;;31.35;21.88;;;;;;;;;;5052219;28;20433;-83
2022/03/15 04:59:17;;;;;;;35.47;22.73;;;;;;;;;;5052539;28;20447;-81
2022/03/15 05:01:43;;;;;;;37.25;23.75;;;;;;;;;;5054661;28;20451;-86
2022/03/15 05:04:10;;;;;;;32.30;22.27;;;;;;;;;;5054640;28;20487;-82
2022/03/15 05:06:38;;;;;;;34.53;23.23;;;;;;;;;;5052590;28;20488;-81
2022/03/15 05:09:04;;;;;;;34.45;22.67;;;;;;;;;;5054641;28;20425;-83
2022/03/15 05:11:31;;;;;;;30.92;21.70;;;;;;;;;;5054014;28;20433;-81
2022/03/15 05:13:57;;;;;;;35.13;23.00;;;;;;;;;;5054750;28;20473;-81
2022/03/15 05:16:23;;;;;;;32.45;22.63;;;;;;;;;;5053711;28;20451;-81
2022/03/15 05:18:52;;;;;;;32.70;23.40;;;;;;;;;;5054795;28;20417;-81
2022/03/15 05:21:18;;;;;;;32.95;21.83;;;;;;;;;;5051498;28;20926;-85
2022/03/15 05:23:45;;;;;;;30.98;22.00;;;;;;;;;;5055415;28;20495;-84
2022/03/15 05:26:12;;;;;;;32.58;21.92;;;;;;;;;;5055437;28;20421;-81
2022/03/15 05:28:39;;;;;;;33.33;22.33;;;;;;;;;;5050042;28;20429;-81
2022/03/15 05:31:06;;;;;;;36.53;24.77;;;;;;;;;;5040099;28;20441;-82
2022/03/15 05:33:32;;;;;;;36.00;24.35;;;;;;;;;;5034870;28;20951;-81
2022/03/15 05:35:58;;;;;;;35.40;24.63;;;;;;;;;;5032667;28;20427;-82
2022/03/15 05:38:25;;;;;;;37.45;24.40;;;;;;;;;;5033042;28;20445;-81
2022/03/15 05:40:51;;;;;;;39.20;25.23;;;;;;;;;;5036286;28;20450;-81
2022/03/15 05:43:18;;;;;;;43.40;26.20;;;;;;;;;;5035932;28;20435;-84
2022/03/15 05:45:46;;;;;;;40.55;25.45;;;;;;;;;;5032405;28;20450;-84
2022/03/15 05:48:12;;;;;;;39.03;26.00;;;;;;;;;;5034694;28;20446;-81
2022/03/15 05:50:39;;;;;;;41.95;28.33;;;;;;;;;;5032689;28;20421;-81
2022/03/15 05:53:05;;;;;;;43.72;26.60;;;;;;;;;;5032836;28;20419;-81
2022/03/15 05:55:31;;;;;;;46.72;29.85;;;;;;;;;;5030243;28;20427;-82
2022/03/15 05:57:58;;;;;;;51.30;29.83;;;;;;;;;;5034506;28;20988;-86
2022/03/15 06:00:24;;;;;;;44.40;28.70;;;;;;;;;;5032690;28;20696;-81
2022/03/15 06:02:52;;;;;;;39.75;25.98;;;;;;;;;;5032037;28;20477;-84
2022/03/15 06:05:18;;;;;;;42.97;26.02;;;;;;;;;;5031983;28;20427;-83
2022/03/15 06:07:45;;;;;;;45.03;27.75;;;;;;;;;;5032085;28;20430;-83
2022/03/15 06:10:11;;;;;;;42.35;27.08;;;;;;;;;;5033908;28;20429;-82
2022/03/15 06:12:38;;;;;;;38.03;25.75;;;;;;;;;;5031702;28;20426;-81
2022/03/15 06:15:04;;;;;;;37.58;26.77;;;;;;;;;;5033125;28;20431;-85
2022/03/15 06:17:31;;;;;;;40.72;26.45;;;;;;;;;;5036696;28;20419;-82
2022/03/15 06:19:59;;;;;;;37.95;26.02;;;;;;;;;;5036255;28;20427;-86
2022/03/15 06:22:25;;;;;;;38.15;26.90;;;;;;;;;;5034412;28;20411;-85
2022/03/15 06:24:52;;;;;;;44.88;28.95;;;;;;;;;;5037382;28;20426;-86
2022/03/15 06:27:18;;;;;;;42.00;28.90;;;;;;;;;;5034081;28;20484;-86
2022/03/15 06:29:44;;;;;;;43.23;27.87;;;;;;;;;;5036125;28;20473;-84
2022/03/15 06:32:12;;;;;;;43.85;28.75;;;;;;;;;;5034551;28;20435;-83
2022/03/15 06:34:38;;;;;;;49.28;28.42;;;;;;;;;;5038412;28;20515;-86
2022/03/15 06:37:07;;;;;;;43.10;27.58;;;;;;;;;;5033904;28;20424;-84
2022/03/15 06:39:33;;;;;;;43.45;27.95;;;;;;;;;;5035005;28;20433;-83
2022/03/15 06:41:59;;;;;;;52.50;30.90;;;;;;;;;;5033281;28;20431;-81
2022/03/15 06:44:26;;;;;;;47.45;30.15;;;;;;;;;;5034774;28;20464;-82
2022/03/15 06:46:52;;;;;;;46.40;30.20;;;;;;;;;;5030812;28;20460;-82
2022/03/15 06:49:18;;;;;;;44.65;30.10;;;;;;;;;;5029164;28;20950;-81
2022/03/15 06:51:45;;;;;;;52.42;31.48;;;;;;;;;;5035015;28;20426;-81
2022/03/15 06:54:12;;;;;;;54.10;32.50;;;;;;;;;;5040923;28;20419;-82
2022/03/15 06:56:39;;;;;;;51.93;31.70;;;;;;;;;;5032147;28;20434;-82
2022/03/15 06:59:06;;;;;;;50.38;32.80;;;;;;;;;;5033153;28;20920;-83
2022/03/15 07:01:32;;;;;;;52.75;33.38;;;;;;;;;;5033048;28;20423;-86
2022/03/15 07:03:58;;;;;;;55.67;34.20;;;;;;;;;;5032490;28;20442;-82
2022/03/15 07:06:24;;;;;;;61.17;35.73;;;;;;;;;;5035827;28;20489;-85
2022/03/15 07:08:51;;;;;;;63.78;38.08;;;;;;;;;;5036245;28;20425;-82
2022/03/15 07:11:18;;;;;;;76.93;40.55;;;;;;;;;;5040484;28;20485;-82
2022/03/15 07:13:45;;;;;;;68.35;41.22;;;;;;;;;;5037783;28;20409;-82
2022/03/15 07:16:11;;;;;;;82.57;45.53;;;;;;;;;;5037657;28;20427;-82
2022/03/15 07:18:37;;;;;;;76.20;44.45;;;;;;;;;;5035788;28;20493;-82
2022/03/15 07:21:04;;;;;;;81.40;47.17;;;;;;;;;;5034706;28;20433;-84
2022/03/15 07:23:30;;;;;;;108.65;51.90;;;;;;;;;;5073038;23;20619;-85
2022/03/15 07:25:56;;;;;;;125.07;55.50;;;;;;;;;;5058004;28;21014;-86
2022/03/15 07:28:24;;;;;;;112.10;54.03;;;;;;;;;;5059267;28;20425;-86
2022/03/15 07:30:50;;;;;;;114.80;56.65;;;;;;;;;;5061062;28;20421;-86
2022/03/15 07:33:16;;;;;;;110.30;55.55;;;;;;;;;;5061083;28;20412;-86
2022/03/15 07:35:42;;;;;;;140.52;62.45;;;;;;;;;;5059216;28;20433;-84
2022/03/15 07:38:09;;;;;;;124.30;59.75;;;;;;;;;;5060864;28;20417;-85
2022/03/15 07:40:35;;;;;;;123.55;59.17;;;;;;;;;;5060664;28;20432;-86
2022/03/15 07:43:01;;;;;;;126.35;60.22;;;;;;;;;;5060025;28;20476;-86
2022/03/15 07:45:29;;;;;;;133.65;63.30;;;;;;;;;;5060178;28;20426;-86
2022/03/15 07:47:55;;;;;;;137.95;64.13;;;;;;;;;;5059234;28;20993;-86
2022/03/15 07:50:21;;;;;;;135.90;63.60;;;;;;;;;;5060756;28;20417;-86
2022/03/15 07:52:48;;;;;;;147.70;67.90;;;;;;;;;;5057822;28;20927;-86
2022/03/15 07:55:14;;;;;;;147.48;66.18;;;;;;;;;;5059206;28;20433;-85
2022/03/15 07:57:40;;;;;;;138.87;66.57;;;;;;;;;;5061783;28;20446;-86
2022/03/15 08:00:08;;;;;;;145.02;66.78;;;;;;;;;;5058245;28;20437;-86
2022/03/15 08:02:35;;;;;;;139.68;67.18;;;;;;;;;;5062293;28;20494;-86
2022/03/15 08:05:03;;;;;;;129.75;62.58;;;;;;;;;;5062784;28;21198;-86
2022/03/15 08:07:29;;;;;;;137.00;64.03;;;;;;;;;;5078046;28;20428;-86
2022/03/15 08:09:55;;;;;;;132.17;64.83;;;;;;;;;;5080172;28;20429;-86
2022/03/15 08:12:21;;;;;;;119.70;60.85;;;;;;;;;;5080889;28;20473;-86
2022/03/15 08:14:48;;;;;;;129.55;65.80;;;;;;;;;;5081426;28;20423;-86
2022/03/15 08:17:15;;;;;;;120.35;61.90;;;;;;;;;;5080498;28;20426;-86
2022/03/15 08:19:43;;;;;;;119.55;63.63;;;;;;;;;;5080744;28;20453;-86
2022/03/15 08:22:09;;;;;;;113.15;60.50;;;;;;;;;;5079754;28;20426;-86
2022/03/15 08:24:35;;;;;;;110.72;59.42;;;;;;;;;;5079325;28;20460;-84
2022/03/15 08:27:01;;;;;;;98.50;56.95;;;;;;;;;;5081891;28;20412;-83
2022/03/15 08:29:30;;;;;;;86.03;52.37;;;;;;;;;;5082991;28;20445;-84
2022/03/15 08:31:57;;;;;;;86.38;51.15;;;;;;;;;;5082675;28;20489;-84
2022/03/15 08:34:23;;;;;;;97.75;56.35;;;;;;;;;;5082853;28;20400;-84
2022/03/15 08:36:53;;;;;;;84.95;53.67;;;;;;;;;;5080969;28;20471;-84
2022/03/15 08:39:21;;;;;;;88.82;53.65;;;;;;;;;;5079923;28;20813;-84
2022/03/15 08:41:51;;;;;;;84.50;49.58;;;;;;;;;;5079573;28;20465;-84
2022/03/15 08:44:18;;;;;;;87.55;51.88;;;;;;;;;;5081843;28;20426;-84
2022/03/15 08:46:45;;;;;;;88.32;54.42;;;;;;;;;;5079317;28;20511;-84
2022/03/15 08:49:11;;;;;;;86.65;53.88;;;;;;;;;;5081682;28;20408;-84
2022/03/15 08:51:37;;;;;;;90.72;54.10;;;;;;;;;;5081639;28;20563;-83
2022/03/15 08:54:05;;;;;;;90.22;53.47;;;;;;;;;;5081123;28;20901;-84
2022/03/15 08:56:32;;;;;;;83.35;54.60;;;;;;;;;;5081665;28;20419;-84
2022/03/15 08:58:58;;;;;;;89.63;55.27;;;;;;;;;;5079835;28;20836;-84
2022/03/15 09:01:24;;;;;;;77.43;49.10;;;;;;;;;;5081018;28;20414;-85
2022/03/15 09:03:50;;;;;;;73.50;50.35;;;;;;;;;;5079151;28;20433;-84
2022/03/15 09:06:17;;;;;;;78.55;50.47;;;;;;;;;;5081838;28;20423;-85
2022/03/15 09:08:43;;;;;;;80.90;49.95;;;;;;;;;;5082242;28;20411;-84
2022/03/15 09:11:10;;;;;;;76.70;50.40;;;;;;;;;;5082469;28;20412;-85
2022/03/15 09:13:37;;;;;;;79.47;51.63;;;;;;;;;;5081174;28;20846;-84
2022/03/15 09:16:05;;;;;;;76.17;48.60;;;;;;;;;;5080595;28;20930;-84
2022/03/15 09:18:31;;;;;;;76.47;51.00;;;;;;;;;;5081176;28;20909;-84
2022/03/15 09:20:58;;;;;;;75.60;49.65;;;;;;;;;;5081011;28;20447;-84
2022/03/15 09:23:24;;;;;;;79.10;50.33;;;;;;;;;;5082123;28;20430;-83
2022/03/15 09:25:50;;;;;;;65.18;46.35;;;;;;;;;;5080234;28;20422;-84
2022/03/15 09:28:18;;;;;;;71.85;49.65;;;;;;;;;;5080647;28;20907;-84
2022/03/15 09:30:44;;;;;;;68.70;47.50;;;;;;;;;;5080370;28;20418;-84
2022/03/15 09:33:10;;;;;;;64.82;45.20;;;;;;;;;;5081905;28;20447;-84
2022/03/15 09:35:39;;;;;;;69.28;48.47;;;;;;;;;;5080130;28;20434;-84
2022/03/15 09:38:06;;;;;;;73.20;48.53;;;;;;;;;;5081956;28;20418;-84
2022/03/15 09:40:32;;;;;;;81.22;53.13;;;;;;;;;;5081920;28;20438;-83
2022/03/15 09:42:59;;;;;;;73.13;49.28;;;;;;;;;;5081005;28;20909;-84
2022/03/15 09:45:29;;;;;;;72.00;50.13;;;;;;;;;;5080842;28;20408;-84
2022/03/15 09:47:57;;;;;;;72.38;48.70;;;;;;;;;;5078392;28;20509;-84
2022/03/15 09:50:24;;;;;;;77.10;50.00;;;;;;;;;;5080394;28;20402;-84
2022/03/15 09:52:51;;;;;;;72.50;48.93;;;;;;;;;;5077885;28;20535;-84
2022/03/15 09:55:18;;;;;;;75.60;51.35;;;;;;;;;;5081003;28;20413;-84
2022/03/15 09:57:44;;;;;;;80.97;52.33;;;;;;;;;;5080800;28;20427;-86
2022/03/15 10:00:13;;;;;;;77.82;52.67;;;;;;;;;;5078341;28;20430;-84
2022/03/15 10:02:41;;;;;;;78.13;51.25;;;;;;;;;;5076940;28;20429;-84
2022/03/15 10:05:08;;;;;;;71.35;50.35;;;;;;;;;;5081058;28;20433;-84
2022/03/15 10:07:35;;;;;;;71.13;49.80;;;;;;;;;;5080364;28;20803;-84
2022/03/15 10:10:02;;;;;;;77.05;51.30;;;;;;;;;;5079564;28;20414;-84
2022/03/15 10:12:28;;;;;;;72.55;50.47;;;;;;;;;;5059605;28;20409;-84
2022/03/15 10:14:56;;;;;;;82.40;51.55;;;;;;;;;;5059770;28;21484;-84
2022/03/15 10:17:22;;;;;;;77.07;52.40;;;;;;;;;;5078672;28;20489;-84
2022/03/15 10:19:53;;;;;;;75.53;50.20;;;;;;;;;;5079290;28;20479;-84
2022/03/15 10:22:20;;;;;;;72.68;49.30;;;;;;;;;;5080038;28;20412;-84
2022/03/15 10:24:47;;;;;;;76.60;49.13;;;;;;;;;;5079957;28;20435;-84
2022/03/15 10:27:13;;;;;;;72.72;51.05;;;;;;;;;;5079644;28;20417;-85
2022/03/15 10:29:40;;;;;;;73.30;49.40;;;;;;;;;;5080757;28;20410;-84
2022/03/15 10:32:06;;;;;;;70.32;46.80;;;;;;;;;;5078982;28;20490;-84
2022/03/15 10:34:32;;;;;;;77.35;51.53;;;;;;;;;;5078829;28;20412;-84
2022/03/15 10:37:00;;;;;;;74.05;52.20;;;;;;;;;;5077070;28;20430;-84
2022/03/15 10:39:27;;;;;;;71.68;49.65;;;;;;;;;;5079266;28;20836;-84
2022/03/15 10:41:54;;;;;;;70.65;47.72;;;;;;;;;;5078752;28;20805;-84
2022/03/15 10:44:22;;;;;;;64.68;46.30;;;;;;;;;;5078671;28;20473;-84
2022/03/15 10:46:58;;;;;;;71.97;47.58;;;;;;;;;;5078187;28;21095;-84
2022/03/15 10:49:24;;;;;;;69.93;50.15;;;;;;;;;;5079384;28;20422;-84
2022/03/15 10:51:51;;;;;;;72.30;48.70;;;;;;;;;;5076178;28;20923;-84
2022/03/15 10:54:18;;;;;;;71.97;50.20;;;;;;;;;;5078350;28;20896;-84
2022/03/15 10:56:51;;;;;;;68.43;49.53;;;;;;;;;;5078142;28;20452;-84
2022/03/15 10:59:17;;;;;;;67.57;50.80;;;;;;;;;;5079316;28;20907;-84
2022/03/15 11:01:44;;;;;;;66.88;49.50;;;;;;;;;;5078733;28;20469;-83
2022/03/15 11:04:12;;;;;;;75.90;53.45;;;;;;;;;;5082331;28;20438;-84
2022/03/15 11:06:39;;;;;;;72.68;52.08;;;;;;;;;;5083910;28;20415;-84
2022/03/15 11:09:20;;;;;;;76.10;54.47;;;;;;;;;;5082244;28;20520;-84
2022/03/15 11:11:46;;;;;;;72.07;51.42;;;;;;;;;;5082551;28;20424;-84
2022/03/15 11:14:13;;;;;;;67.50;50.20;;;;;;;;;;5084980;28;20440;-84
2022/03/15 11:16:41;;;;;;;76.82;52.28;;;;;;;;;;5081664;28;20412;-85
2022/03/15 11:19:08;;;;;;;69.80;48.80;;;;;;;;;;5083662;28;20415;-84
2022/03/15 11:21:35;;;;;;;72.30;52.20;;;;;;;;;;5082885;28;20427;-84
2022/03/15 11:24:02;;;;;;;67.65;48.38;;;;;;;;;;5082624;28;20439;-84
2022/03/15 11:26:33;;;;;;;68.22;47.80;;;;;;;;;;5081853;28;20479;-84
2022/03/15 11:29:00;;;;;;;64.22;47.88;;;;;;;;;;5083875;28;20427;-84
2022/03/15 11:31:26;;;;;;;66.38;47.10;;;;;;;;;;5083650;28;20423;-84
2022/03/15 11:33:54;;;;;;;65.60;47.38;;;;;;;;;;5082970;28;20613;-85
2022/03/15 11:36:24;;;;;;;57.22;43.65;;;;;;;;;;5083633;28;20915;-84
2022/03/15 11:38:51;;;;;;;61.00;43.55;;;;;;;;;;5082960;28;20423;-84
2022/03/15 11:41:17;;;;;;;64.33;44.60;;;;;;;;;;5080077;28;20501;-83
2022/03/15 11:43:50;;;;;;;57.97;42.80;;;;;;;;;;5072797;28;20463;-84
2022/03/15 11:46:21;;;;;;;63.42;45.17;;;;;;;;;;5078887;28;20795;-84
2022/03/15 11:48:52;;;;;;;60.72;42.10;;;;;;;;;;5078523;28;20520;-85
2022/03/15 11:51:25;;;;;;;63.78;45.38;;;;;;;;;;5082710;28;20418;-84
2022/03/15 11:53:57;;;;;;;65.95;45.53;;;;;;;;;;5080892;28;20950;-83
2022/03/15 11:56:28;;;;;;;59.92;43.90;;;;;;;;;;5083957;28;20659;-84
2022/03/15 11:58:56;;;;;;;62.70;44.78;;;;;;;;;;5081965;28;20436;-84
2022/03/15 12:01:23;;;;;;;60.38;44.40;;;;;;;;;;5084610;28;20767;-85
2022/03/15 12:03:51;;;;;;;64.70;43.70;;;;;;;;;;5083198;28;20424;-84
2022/03/15 12:06:19;;;;;;;62.95;44.67;;;;;;;;;;5082440;28;20416;-84
2022/03/15 12:08:51;;;;;;;60.78;43.30;;;;;;;;;;5081504;28;20449;-84
2022/03/15 12:11:25;;;;;;;59.42;43.42;;;;;;;;;;5080740;28;20408;-84
2022/03/15 12:13:52;;;;;;;58.70;41.70;;;;;;;;;;5082852;28;20420;-85
2022/03/15 12:16:25;;;;;;;62.42;41.67;;;;;;;;;;5081926;28;20433;-84
2022/03/15 12:19:05;;;;;;;58.63;41.45;;;;;;;;;;5082554;28;20894;-84
2022/03/15 12:21:32;;;;;;;57.78;42.95;;;;;;;;;;5081701;28;20426;-84
2022/03/15 12:23:58;;;;;;;52.92;38.97;;;;;;;;;;5081726;28;20423;-84
2022/03/15 12:26:26;;;;;;;54.80;38.58;;;;;;;;;;5080383;28;20411;-84
2022/03/15 12:28:57;;;;;;;57.22;40.08;;;;;;;;;;5083143;28;20426;-84
2022/03/15 12:31:33;;;;;;;53.40;39.85;;;;;;;;;;5081991;28;20420;-84
2022/03/15 12:34:00;;;;;;;55.65;40.15;;;;;;;;;;5083448;28;20422;-84
2022/03/15 12:36:36;;;;;;;60.78;41.67;;;;;;;;;;5080526;28;20430;-84
2022/03/15 12:39:07;;;;;;;60.35;41.80;;;;;;;;;;5082107;28;20411;-84
2022/03/15 12:41:34;;;;;;;54.92;38.75;;;;;;;;;;5080973;28;20426;-84
2022/03/15 12:44:00;;;;;;;62.72;42.00;;;;;;;;;;5081906;28;20436;-84
2022/03/15 12:46:30;;;;;;;55.97;39.08;;;;;;;;;;5081913;28;20422;-84
2022/03/15 12:49:05;;;;;;;58.92;41.42;;;;;;;;;;5081652;28;20422;-84
2022/03/15 12:51:37;;;;;;;55.67;39.00;;;;;;;;;;5081937;28;20426;-84
2022/03/15 12:54:04;;;;;;;54.40;38.85;;;;;;;;;;5081760;28;20464;-84
2022/03/15 12:56:31;;;;;;;53.60;38.70;;;;;;;;;;5079442;28;20800;-84
2022/03/15 12:58:57;;;;;;;56.00;40.83;;;;;;;;;;5081257;28;21050;-84
2022/03/15 13:01:25;;;;;;;58.08;42.05;;;;;;;;;;5081479;28;20415;-85
2022/03/15 13:03:51;;;;;;;60.20;43.55;;;;;;;;;;5081354;28;20418;-85
2022/03/15 13:06:19;;;;;;;59.58;43.10;;;;;;;;;;5081243;28;20814;-84
2022/03/15 13:08:52;;;;;;;66.22;43.92;;;;;;;;;;5081736;28;20474;-84
2022/03/15 13:11:18;;;;;;;62.97;44.90;;;;;;;;;;5080977;28;20418;-84
2022/03/15 13:13:46;;;;;;;61.10;43.80;;;;;;;;;;5081765;28;20923;-84
2022/03/15 13:16:13;;;;;;;60.53;43.30;;;;;;;;;;5078184;28;20452;-84
2022/03/15 13:18:41;;;;;;;57.05;39.83;;;;;;;;;;5080551;28;20410;-84
2022/03/15 13:21:09;;;;;;;62.10;42.22;;;;;;;;;;5079932;28;20411;-84
2022/03/15 13:23:37;;;;;;;60.15;43.42;;;;;;;;;;5174395;22;20850;-84
2022/03/15 13:26:07;;;;;;;61.45;44.13;;;;;;;;;;5057774;28;20411;-85
2022/03/15 13:28:36;;;;;;;56.22;41.55;;;;;;;;;;5057501;28;20427;-84
2022/03/15 13:31:05;;;;;;;56.13;40.00;;;;;;;;;;5056276;28;21056;-84
2022/03/15 13:33:37;;;;;;;51.80;37.30;;;;;;;;;;5052212;28;20999;-84
2022/03/15 13:36:05;;;;;;;57.42;40.80;;;;;;;;;;5038493;28;20877;-84
2022/03/15 13:38:32;;;;;;;54.63;39.70;;;;;;;;;;5035324;28;20427;-84
2022/03/15 13:41:00;;;;;;;58.08;40.72;;;;;;;;;;5039141;28;20452;-85
2022/03/15 13:43:27;;;;;;;56.53;39.55;;;;;;;;;;5039074;28;20458;-84
2022/03/15 13:45:54;;;;;;;54.85;38.10;;;;;;;;;;5037739;28;20477;-84
2022/03/15 13:48:29;;;;;;;55.65;37.25;;;;;;;;;;5039547;28;20417;-84
2022/03/15 13:51:00;;;;;;;52.03;37.28;;;;;;;;;;5038582;28;20423;-84
2022/03/15 13:53:26;;;;;;;50.42;36.97;;;;;;;;;;5038885;28;20421;-83
2022/03/15 13:55:53;;;;;;;51.13;36.00;;;;;;;;;;5040129;28;20415;-85
2022/03/15 13:58:28;;;;;;;50.03;36.20;;;;;;;;;;5038827;28;20864;-84
2022/03/15 14:01:00;;;;;;;49.40;35.15;;;;;;;;;;5039554;28;20427;-84
2022/03/15 14:03:28;;;;;;;47.80;34.80;;;;;;;;;;5037062;28;20431;-84
2022/03/15 14:05:59;;;;;;;51.20;35.65;;;;;;;;;;5036803;28;20441;-84
2022/03/15 14:08:25;;;;;;;54.97;36.20;;;;;;;;;;5039181;28;20429;-83
2022/03/15 14:10:54;;;;;;;51.10;34.50;;;;;;;;;;5037495;28;20427;-84
2022/03/15 14:13:24;;;;;;;52.92;36.80;;;;;;;;;;5038493;28;20420;-85
2022/03/15 14:15:59;;;;;;;50.53;35.90;;;;;;;;;;5037053;28;20415;-84